Time;durP1;ratioP1;P1;durP2;ratioP2;P2;SDS_P1;SDS_P2;PMS_P1;PMS_P2;Temp;Humidity;BMP_temperature;BMP_pressure;BME280_temperature;BME280_humidity;BME280_pressure;Samples;Min_cycle;Max_cycle;Signal;HPM_P1;HPM_P2
2023/12/30 00:01:57;;;;;;;14.48;7.43;;;8.90;1.00;;;;;;5056443;28;20327;-68
2023/12/30 00:04:26;;;;;;;15.43;8.07;;;8.90;1.00;;;;;;5059418;28;20310;-69
2023/12/30 00:06:55;;;;;;;16.90;8.02;;;8.90;1.00;;;;;;5058246;28;20232;-69
2023/12/30 00:09:24;;;;;;;16.48;8.70;;;8.90;1.00;;;;;;5060010;28;20220;-71
2023/12/30 00:11:52;;;;;;;13.48;8.35;;;8.80;1.00;;;;;;5055993;28;20229;-69
2023/12/30 00:14:21;;;;;;;14.32;8.40;;;8.90;1.00;;;;;;5049970;28;20282;-69
2023/12/30 00:16:50;;;;;;;16.35;8.45;;;8.80;1.00;;;;;;5050737;28;21003;-69
2023/12/30 00:19:19;;;;;;;13.75;8.32;;;8.80;1.00;;;;;;5061232;28;20811;-69
2023/12/30 00:21:48;;;;;;;13.55;8.18;;;8.80;1.00;;;;;;5077656;28;20230;-68
2023/12/30 00:24:16;;;;;;;14.52;8.93;;;8.70;1.00;;;;;;5079271;28;20319;-69
2023/12/30 00:26:45;;;;;;;12.38;8.07;;;8.80;1.00;;;;;;5062284;28;20223;-70
2023/12/30 00:29:14;;;;;;;16.77;9.00;;;8.70;1.00;;;;;;5083762;28;20246;-68
2023/12/30 00:31:42;;;;;;;14.00;8.60;;;8.70;1.00;;;;;;5053533;28;20227;-69
2023/12/30 00:34:12;;;;;;;12.43;7.72;;;8.70;1.00;;;;;;5070193;28;20308;-69
2023/12/30 00:36:44;;;;;;;13.88;8.70;;;8.70;1.00;;;;;;5090746;28;20237;-69
2023/12/30 00:39:12;;;;;;;14.20;8.02;;;8.60;1.00;;;;;;5079482;28;20220;-69
2023/12/30 00:41:41;;;;;;;12.85;8.40;;;8.70;1.00;;;;;;5080681;28;20269;-70
2023/12/30 00:44:10;;;;;;;14.23;9.02;;;8.70;1.00;;;;;;5082033;28;20233;-69
2023/12/30 00:46:38;;;;;;;16.75;8.70;;;8.60;1.00;;;;;;5075088;28;20211;-70
2023/12/30 00:49:09;;;;;;;14.23;8.25;;;8.60;1.00;;;;;;5071217;28;20286;-70
2023/12/30 00:51:39;;;;;;;11.85;8.25;;;8.50;1.00;;;;;;5062597;28;20235;-70
2023/12/30 00:54:08;;;;;;;15.63;8.93;;;8.60;1.00;;;;;;5067002;28;20228;-71
2023/12/30 00:56:37;;;;;;;14.63;8.63;;;8.50;1.00;;;;;;5061373;28;20228;-68
2023/12/30 00:59:05;;;;;;;13.82;8.52;;;8.50;1.00;;;;;;5059872;28;20232;-67
2023/12/30 01:01:37;;;;;;;15.93;8.50;;;8.50;1.00;;;;;;5055593;28;20391;-67
2023/12/30 01:04:06;;;;;;;12.60;8.38;;;8.50;1.00;;;;;;5058421;28;20900;-68
2023/12/30 01:06:34;;;;;;;12.88;7.88;;;8.60;1.00;;;;;;5084534;28;20245;-67
2023/12/30 01:09:04;;;;;;;15.45;8.30;;;8.60;1.00;;;;;;5069202;27;20323;-68
2023/12/30 01:11:33;;;;;;;16.42;8.45;;;8.50;1.00;;;;;;5054098;28;20229;-66
2023/12/30 01:14:01;;;;;;;14.48;7.88;;;8.50;1.00;;;;;;5061771;28;20216;-68
2023/12/30 01:16:30;;;;;;;12.38;7.72;;;8.40;1.00;;;;;;5068090;28;20234;-68
2023/12/30 01:18:58;;;;;;;11.85;7.55;;;8.40;1.00;;;;;;5058586;28;20232;-68
2023/12/30 01:21:27;;;;;;;12.85;7.78;;;8.40;1.00;;;;;;5069962;28;20255;-68
2023/12/30 01:23:55;;;;;;;13.50;8.15;;;8.40;1.00;;;;;;5073435;28;21184;-67
2023/12/30 01:26:31;;;;;;;12.30;7.63;;;8.40;1.00;;;;;;5077658;28;20231;-68
2023/12/30 01:28:59;;;;;;;14.32;8.20;;;8.50;1.00;;;;;;5074120;28;20635;-67
2023/12/30 01:31:28;;;;;;;14.73;8.07;;;8.50;1.00;;;;;;5073801;28;20216;-67
2023/12/30 01:33:57;;;;;;;12.93;7.28;;;8.50;1.00;;;;;;5084155;27;20280;-66
2023/12/30 01:36:26;;;;;;;13.77;7.55;;;8.50;1.00;;;;;;5062455;28;20254;-67
2023/12/30 01:38:55;;;;;;;12.75;7.90;;;8.50;1.00;;;;;;5062019;28;20236;-68
2023/12/30 01:41:25;;;;;;;12.10;7.18;;;8.50;1.00;;;;;;5071168;28;20758;-69
2023/12/30 01:43:54;;;;;;;11.82;7.38;;;8.60;1.00;;;;;;5055132;28;20220;-68
2023/12/30 01:46:22;;;;;;;12.90;7.28;;;8.60;1.00;;;;;;5054167;28;20220;-70
2023/12/30 01:48:51;;;;;;;13.73;6.90;;;8.60;1.00;;;;;;5056417;28;20232;-69
2023/12/30 01:51:20;;;;;;;11.40;7.03;;;8.60;1.00;;;;;;5063857;28;20299;-69
2023/12/30 01:53:56;;;;;;;10.27;6.38;;;8.50;1.00;;;;;;5075218;28;20224;-69
2023/12/30 01:56:26;;;;;;;13.02;6.88;;;8.60;1.00;;;;;;5066276;28;20243;-69
2023/12/30 01:58:55;;;;;;;10.73;6.30;;;8.70;1.00;;;;;;5067328;28;20877;-70
2023/12/30 02:01:26;;;;;;;10.48;6.85;;;8.70;1.00;;;;;;5062757;28;20297;-71
2023/12/30 02:03:56;;;;;;;12.75;6.90;;;8.70;1.00;;;;;;5070657;28;20220;-71
2023/12/30 02:06:25;;;;;;;11.68;6.93;;;8.60;1.00;;;;;;5079591;28;20721;-69
2023/12/30 02:08:54;;;;;;;12.63;7.05;;;8.70;1.00;;;;;;5083871;28;20220;-68
2023/12/30 02:11:22;;;;;;;11.32;7.25;;;8.80;1.00;;;;;;5061227;27;20305;-69
2023/12/30 02:13:53;;;;;;;10.73;6.70;;;8.80;1.00;;;;;;5060810;28;20240;-68
2023/12/30 02:16:22;;;;;;;13.45;6.43;;;8.80;1.00;;;;;;5074925;28;20314;-70
2023/12/30 02:18:50;;;;;;;11.70;6.20;;;8.80;1.00;;;;;;5059666;28;20709;-70
2023/12/30 02:21:19;;;;;;;11.63;6.90;;;8.80;1.00;;;;;;5056519;28;20708;-69
2023/12/30 02:23:53;;;;;;;11.23;6.68;;;8.80;1.00;;;;;;5082277;27;20227;-70
2023/12/30 02:26:23;;;;;;;10.70;6.50;;;8.80;1.00;;;;;;5067267;28;20978;-69
2023/12/30 02:28:51;;;;;;;11.57;6.93;;;8.80;1.00;;;;;;5078977;28;20637;-70
2023/12/30 02:31:20;;;;;;;11.75;6.40;;;8.90;1.00;;;;;;5070716;28;20307;-70
2023/12/30 02:33:48;;;;;;;11.27;6.03;;;8.90;1.00;;;;;;5077735;28;20299;-71
2023/12/30 02:36:17;;;;;;;10.38;6.20;;;9.00;1.00;;;;;;5051357;28;20223;-71
2023/12/30 02:38:45;;;;;;;8.63;5.93;;;9.00;1.00;;;;;;5063003;28;20383;-71
2023/12/30 02:41:19;;;;;;;9.10;5.95;;;9.00;1.00;;;;;;5055961;28;20285;-72
2023/12/30 02:43:55;;;;;;;9.45;5.80;;;9.00;1.00;;;;;;5079132;28;20247;-71
2023/12/30 02:46:24;;;;;;;9.90;6.40;;;9.10;1.00;;;;;;5077556;28;20318;-69
2023/12/30 02:48:52;;;;;;;9.88;6.22;;;9.00;1.00;;;;;;5056097;28;20254;-71
2023/12/30 02:51:22;;;;;;;9.95;5.60;;;9.00;1.00;;;;;;5058524;28;20220;-69
2023/12/30 02:53:50;;;;;;;12.15;6.05;;;9.10;1.00;;;;;;5052461;28;20228;-71
2023/12/30 02:56:21;;;;;;;10.45;5.22;;;9.10;1.00;;;;;;5061200;27;20228;-70
2023/12/30 02:58:52;;;;;;;8.45;5.90;;;9.10;1.00;;;;;;5059746;28;20263;-70
2023/12/30 03:01:21;;;;;;;7.90;5.32;;;9.10;1.00;;;;;;5066384;28;20227;-70
2023/12/30 03:03:50;;;;;;;10.43;5.63;;;9.10;1.00;;;;;;5054897;28;20252;-70
2023/12/30 03:06:19;;;;;;;8.98;5.25;;;9.20;1.00;;;;;;5074023;28;20224;-70
2023/12/30 03:08:48;;;;;;;9.93;4.85;;;9.10;1.00;;;;;;5066869;28;20264;-70
2023/12/30 03:11:17;;;;;;;8.45;4.95;;;9.10;1.00;;;;;;5066361;28;20219;-68
2023/12/30 03:13:47;;;;;;;7.82;5.35;;;9.30;1.00;;;;;;5066950;28;20220;-68
2023/12/30 03:16:16;;;;;;;9.05;5.18;;;9.10;1.00;;;;;;5057681;28;20308;-69
2023/12/30 03:18:46;;;;;;;9.45;5.10;;;9.10;1.00;;;;;;5056979;28;20914;-68
2023/12/30 03:21:18;;;;;;;8.90;4.97;;;9.20;1.00;;;;;;5049048;28;20699;-69
2023/12/30 03:23:46;;;;;;;9.35;4.97;;;9.20;1.00;;;;;;5079818;28;20254;-69
2023/12/30 03:26:15;;;;;;;7.65;4.85;;;9.20;1.00;;;;;;5061227;28;20232;-69
2023/12/30 03:28:43;;;;;;;7.30;4.20;;;9.30;1.00;;;;;;5053975;28;20230;-69
2023/12/30 03:31:22;;;;;;;6.07;4.63;;;9.30;1.00;;;;;;5053004;28;20227;-69
2023/12/30 03:33:51;;;;;;;6.38;4.38;;;9.40;1.00;;;;;;5065891;28;20233;-69
2023/12/30 03:36:20;;;;;;;6.22;4.07;;;9.50;1.00;;;;;;5065081;28;20234;-69
2023/12/30 03:38:49;;;;;;;7.50;4.22;;;9.50;1.00;;;;;;5075121;28;20258;-68
2023/12/30 03:41:18;;;;;;;7.50;4.00;;;9.50;1.00;;;;;;5068881;28;20220;-70
2023/12/30 03:43:48;;;;;;;6.88;4.10;;;9.50;1.00;;;;;;5066697;28;20223;-69
2023/12/30 03:46:16;;;;;;;6.15;3.72;;;9.60;1.00;;;;;;5076358;28;20225;-69
2023/12/30 03:48:46;;;;;;;6.43;3.42;;;9.70;1.00;;;;;;5068825;28;20236;-71
2023/12/30 03:51:15;;;;;;;6.47;4.15;;;9.70;1.00;;;;;;5074145;28;20224;-69
2023/12/30 03:53:43;;;;;;;5.53;3.40;;;9.70;1.00;;;;;;5070451;28;20231;-67
2023/12/30 03:56:13;;;;;;;5.65;3.25;;;9.80;1.00;;;;;;5082802;28;20878;-69
2023/12/30 03:58:41;;;;;;;5.30;3.58;;;9.80;1.00;;;;;;5059302;28;20258;-68
2023/12/30 04:01:10;;;;;;;4.25;2.97;;;9.80;1.00;;;;;;5078845;28;20220;-68
2023/12/30 04:03:38;;;;;;;5.30;3.33;;;9.90;1.00;;;;;;5067789;28;20703;-68
2023/12/30 04:06:16;;;;;;;5.45;3.33;;;9.90;1.00;;;;;;5060535;28;21054;-69
2023/12/30 04:08:44;;;;;;;5.40;2.80;;;10.00;1.00;;;;;;5078552;28;20324;-70
2023/12/30 04:11:13;;;;;;;4.35;2.83;;;10.00;1.00;;;;;;5059550;28;20243;-69
2023/12/30 04:13:41;;;;;;;3.65;2.85;;;10.10;1.00;;;;;;5062929;28;20633;-70
2023/12/30 04:16:10;;;;;;;4.55;2.97;;;10.10;1.00;;;;;;5057039;28;20219;-69
2023/12/30 04:18:38;;;;;;;4.80;3.25;;;10.20;1.00;;;;;;5062580;28;20212;-68
2023/12/30 04:21:08;;;;;;;4.80;2.63;;;10.20;1.00;;;;;;5068046;28;20224;-70
2023/12/30 04:23:37;;;;;;;4.28;2.70;;;10.20;1.00;;;;;;5066732;28;20319;-68
2023/12/30 04:26:05;;;;;;;4.45;2.90;;;10.20;1.00;;;;;;5058601;28;20227;-69
2023/12/30 04:28:34;;;;;;;4.70;2.80;;;10.20;1.00;;;;;;5063767;28;20239;-69
2023/12/30 04:31:02;;;;;;;3.90;2.63;;;10.30;1.00;;;;;;5059226;28;20228;-69
2023/12/30 04:33:31;;;;;;;2.90;2.17;;;10.30;1.00;;;;;;5060513;28;20821;-68
2023/12/30 04:35:59;;;;;;;3.83;2.80;;;10.40;1.00;;;;;;5056141;28;20216;-70
2023/12/30 04:38:29;;;;;;;4.07;2.95;;;10.40;1.00;;;;;;5063482;28;20236;-69
2023/12/30 04:40:58;;;;;;;4.03;2.50;;;10.40;1.00;;;;;;5059973;28;20232;-69
2023/12/30 04:43:26;;;;;;;3.45;2.60;;;10.40;1.00;;;;;;5057171;28;20223;-69
2023/12/30 04:45:55;;;;;;;4.30;2.95;;;10.50;1.00;;;;;;5070330;28;20212;-68
2023/12/30 04:48:23;;;;;;;3.45;2.40;;;10.40;1.00;;;;;;5052343;28;20236;-68
2023/12/30 04:50:52;;;;;;;5.25;2.58;;;10.40;1.00;;;;;;5066457;28;20223;-70
2023/12/30 04:53:20;;;;;;;3.33;2.28;;;10.50;1.00;;;;;;5066711;28;20299;-68
2023/12/30 04:55:50;;;;;;;3.60;2.60;;;10.50;1.00;;;;;;5082605;28;20722;-68
2023/12/30 04:58:19;;;;;;;3.83;2.50;;;10.50;1.00;;;;;;5063467;28;20220;-68
2023/12/30 05:00:47;;;;;;;3.95;2.70;;;10.50;1.00;;;;;;5065654;28;20275;-68
2023/12/30 05:03:16;;;;;;;3.50;2.55;;;10.50;1.00;;;;;;5061998;28;20230;-68
2023/12/30 05:05:45;;;;;;;5.43;3.00;;;10.50;1.00;;;;;;5075846;28;20219;-68
2023/12/30 05:08:14;;;;;;;4.63;2.90;;;10.50;1.00;;;;;;5081499;28;20659;-69
2023/12/30 05:10:42;;;;;;;5.07;2.95;;;10.50;1.00;;;;;;5078642;28;20289;-69
2023/12/30 05:13:12;;;;;;;4.03;2.95;;;10.50;1.00;;;;;;5067062;28;20231;-69
2023/12/30 05:15:40;;;;;;;5.10;2.45;;;10.40;1.00;;;;;;5057743;28;20220;-70
2023/12/30 05:18:09;;;;;;;4.65;2.90;;;10.40;1.00;;;;;;5059140;28;20247;-68
2023/12/30 05:20:37;;;;;;;4.13;2.85;;;10.50;1.00;;;;;;5063349;28;20223;-69
2023/12/30 05:23:06;;;;;;;5.35;2.90;;;10.50;1.00;;;;;;5061408;28;20224;-69
2023/12/30 05:25:34;;;;;;;3.90;2.80;;;10.40;1.00;;;;;;5059717;28;20641;-68
2023/12/30 05:28:03;;;;;;;6.35;2.75;;;10.40;1.00;;;;;;5056759;28;20236;-68
2023/12/30 05:30:33;;;;;;;5.18;2.97;;;10.40;1.00;;;;;;5066574;28;20223;-68
2023/12/30 05:33:03;;;;;;;4.65;2.88;;;10.40;1.00;;;;;;5083520;28;20224;-69
2023/12/30 05:35:32;;;;;;;3.88;2.22;;;10.40;1.00;;;;;;5059390;28;20236;-67
2023/12/30 05:38:00;;;;;;;4.45;2.58;;;10.40;1.00;;;;;;5056872;28;20300;-67
2023/12/30 05:40:29;;;;;;;3.97;2.58;;;10.40;1.00;;;;;;5058986;28;20652;-71
2023/12/30 05:42:58;;;;;;;3.75;2.55;;;10.50;1.00;;;;;;5061535;28;20699;-69
2023/12/30 05:45:26;;;;;;;4.32;2.70;;;10.40;1.00;;;;;;5053161;28;20282;-68
2023/12/30 05:47:56;;;;;;;3.75;2.40;;;10.50;1.00;;;;;;5063044;28;20224;-68
2023/12/30 05:50:25;;;;;;;5.43;2.70;;;10.40;1.00;;;;;;5060758;28;20650;-69
2023/12/30 05:52:53;;;;;;;5.07;2.83;;;10.50;1.00;;;;;;5064341;28;20751;-70
2023/12/30 05:55:22;;;;;;;3.75;2.40;;;10.50;1.00;;;;;;5059667;28;20227;-69
2023/12/30 05:57:51;;;;;;;3.70;2.33;;;10.50;1.00;;;;;;5053905;28;20634;-70
2023/12/30 06:00:20;;;;;;;3.58;2.63;;;10.50;1.00;;;;;;5065336;28;20557;-67
2023/12/30 06:02:49;;;;;;;4.38;2.33;;;10.50;1.00;;;;;;5062330;28;20243;-69
2023/12/30 06:05:19;;;;;;;3.65;2.30;;;10.50;1.00;;;;;;5068008;28;20227;-69
2023/12/30 06:07:48;;;;;;;4.38;2.55;;;10.50;1.00;;;;;;5059222;28;20281;-68
2023/12/30 06:10:17;;;;;;;5.25;2.35;;;10.30;1.00;;;;;;5062078;28;20315;-70
2023/12/30 06:12:46;;;;;;;4.25;2.20;;;10.40;1.00;;;;;;5058109;28;20659;-69
2023/12/30 06:15:14;;;;;;;4.10;2.30;;;10.30;1.00;;;;;;5062156;28;20599;-68
2023/12/30 06:17:43;;;;;;;4.43;2.10;;;10.20;1.00;;;;;;5071278;28;20235;-70
2023/12/30 06:20:12;;;;;;;2.25;1.70;;;10.10;1.00;;;;;;5078762;28;20231;-69
2023/12/30 06:22:42;;;;;;;2.15;1.35;;;10.00;1.00;;;;;;5092307;28;20239;-70
2023/12/30 06:25:10;;;;;;;2.63;1.33;;;9.80;1.00;;;;;;5059950;28;20220;-69
2023/12/30 06:27:38;;;;;;;2.40;1.33;;;9.70;1.00;;;;;;5050413;28;20695;-71
2023/12/30 06:30:08;;;;;;;3.40;1.30;;;9.60;1.00;;;;;;5049983;28;20224;-69
2023/12/30 06:32:37;;;;;;;3.05;1.42;;;9.40;1.00;;;;;;5055702;28;20358;-68
2023/12/30 06:35:06;;;;;;;4.10;1.30;;;9.30;1.00;;;;;;5056725;28;20216;-69
2023/12/30 06:37:35;;;;;;;1.60;1.40;;;9.30;1.00;;;;;;5059292;28;20260;-67
2023/12/30 06:40:06;;;;;;;1.98;1.30;;;9.20;1.00;;;;;;5075297;28;20687;-67
2023/12/30 06:42:35;;;;;;;2.35;1.08;;;9.10;1.00;;;;;;5061917;28;20315;-67
2023/12/30 06:45:04;;;;;;;3.88;1.20;;;9.00;1.00;;;;;;5064863;28;20303;-70
2023/12/30 06:47:32;;;;;;;1.70;1.00;;;8.90;1.00;;;;;;5059165;28;20251;-69
2023/12/30 06:50:01;;;;;;;1.33;0.93;;;9.00;1.00;;;;;;5056352;28;20220;-68
2023/12/30 06:52:29;;;;;;;1.27;1.10;;;8.90;1.00;;;;;;5061517;28;20209;-69
2023/12/30 06:54:58;;;;;;;1.13;1.00;;;8.90;1.00;;;;;;5057623;28;20239;-68
2023/12/30 06:57:43;;;;;;;3.10;1.02;;;8.90;1.00;;;;;;5051213;28;20219;-68
2023/12/30 07:00:13;;;;;;;1.63;1.25;;;8.90;1.00;;;;;;5050484;28;20231;-69
2023/12/30 07:02:42;;;;;;;1.73;1.27;;;8.90;1.00;;;;;;5064666;28;20231;-69
2023/12/30 07:05:10;;;;;;;3.38;1.30;;;8.90;1.00;;;;;;5066739;28;20236;-68
2023/12/30 07:07:39;;;;;;;2.03;0.98;;;8.90;1.00;;;;;;5052538;28;20232;-68
2023/12/30 07:10:08;;;;;;;2.28;1.40;;;9.00;1.00;;;;;;5051152;28;20208;-68
2023/12/30 07:12:37;;;;;;;1.63;1.33;;;9.00;1.00;;;;;;5054461;28;20209;-68
2023/12/30 07:15:09;;;;;;;2.78;1.20;;;8.90;1.00;;;;;;5060523;28;20239;-67
2023/12/30 07:17:38;;;;;;;2.13;1.55;;;9.00;1.00;;;;;;5058151;28;20767;-68
2023/12/30 07:20:08;;;;;;;3.13;1.65;;;8.90;1.00;;;;;;5061929;28;20228;-67
2023/12/30 07:22:36;;;;;;;3.80;1.98;;;9.00;1.00;;;;;;5073723;28;20277;-68
2023/12/30 07:25:06;;;;;;;3.05;2.10;;;9.00;1.00;;;;;;5061813;28;20220;-70
2023/12/30 07:27:34;;;;;;;4.13;1.80;;;9.00;1.00;;;;;;5077211;28;20477;-70
2023/12/30 07:30:02;;;;;;;3.15;1.80;;;9.10;1.00;;;;;;5062683;28;20725;-69
2023/12/30 07:32:32;;;;;;;2.80;2.20;;;9.10;1.00;;;;;;5065330;27;20219;-68
2023/12/30 07:35:01;;;;;;;5.10;2.33;;;9.10;1.00;;;;;;5057352;28;20235;-68
2023/12/30 07:37:30;;;;;;;4.78;2.00;;;9.20;1.00;;;;;;5064531;28;20244;-69
2023/12/30 07:39:59;;;;;;;3.22;2.20;;;9.20;1.00;;;;;;5068188;28;20231;-68
2023/12/30 07:42:28;;;;;;;3.80;2.22;;;9.30;1.00;;;;;;5075188;28;20216;-70
2023/12/30 07:44:56;;;;;;;3.05;2.13;;;9.20;1.00;;;;;;5076358;28;20629;-67
2023/12/30 07:47:26;;;;;;;2.97;2.33;;;9.30;1.00;;;;;;5065190;28;20216;-70
2023/12/30 07:49:56;;;;;;;5.85;2.08;;;9.30;1.00;;;;;;5072649;28;20219;-68
2023/12/30 07:52:25;;;;;;;4.25;2.10;;;9.20;1.00;;;;;;5071927;28;20304;-68
2023/12/30 07:54:54;;;;;;;3.55;2.40;;;9.30;1.00;;;;;;5052822;28;20239;-70
2023/12/30 07:57:22;;;;;;;4.95;2.40;;;9.40;1.00;;;;;;5062493;28;20224;-69
2023/12/30 07:59:51;;;;;;;3.60;2.33;;;9.40;1.00;;;;;;5082147;28;20239;-67
2023/12/30 08:02:19;;;;;;;4.35;2.25;;;9.50;1.00;;;;;;5074451;28;20631;-67
2023/12/30 08:04:48;;;;;;;2.90;2.10;;;9.50;1.00;;;;;;5076465;28;20317;-68
2023/12/30 08:07:18;;;;;;;3.95;2.00;;;9.50;1.00;;;;;;5070921;28;20242;-68
2023/12/30 08:09:46;;;;;;;2.97;1.98;;;9.50;1.00;;;;;;5054969;28;20227;-67
2023/12/30 08:12:15;;;;;;;3.55;2.00;;;9.40;1.00;;;;;;5068360;28;20228;-67
2023/12/30 08:14:43;;;;;;;3.80;1.92;;;9.50;1.00;;;;;;5089321;28;20300;-68
2023/12/30 08:17:12;;;;;;;2.30;1.70;;;9.50;1.00;;;;;;5059824;28;20228;-68
2023/12/30 08:19:40;;;;;;;2.33;1.55;;;9.50;1.00;;;;;;5072903;28;20235;-68
2023/12/30 08:22:09;;;;;;;2.50;1.70;;;9.50;1.00;;;;;;5069963;28;20242;-70
2023/12/30 08:24:38;;;;;;;2.92;1.48;;;9.40;1.00;;;;;;5057669;28;20306;-68
2023/12/30 08:27:07;;;;;;;1.92;1.27;;;9.50;1.00;;;;;;5062767;28;20232;-69
2023/12/30 08:29:36;;;;;;;2.25;1.30;;;9.40;1.00;;;;;;5062758;28;20232;-72
2023/12/30 08:32:06;;;;;;;3.40;1.42;;;9.40;1.00;;;;;;5071352;28;20228;-69
2023/12/30 08:34:35;;;;;;;3.67;1.40;;;9.40;1.00;;;;;;5080123;28;20625;-69
2023/12/30 08:37:08;;;;;;;1.70;1.33;;;9.40;1.00;;;;;;5052684;28;20312;-69
2023/12/30 08:39:38;;;;;;;1.88;1.00;;;9.30;1.00;;;;;;5085995;28;20314;-68
2023/12/30 08:42:08;;;;;;;1.80;1.13;;;9.30;1.00;;;;;;5059575;28;20243;-69
2023/12/30 08:44:40;;;;;;;4.13;1.50;;;9.40;1.00;;;;;;5056498;28;20247;-66
2023/12/30 08:47:09;;;;;;;5.95;1.85;;;9.30;1.00;;;;;;5073794;28;20263;-67
2023/12/30 08:49:38;;;;;;;3.75;1.40;;;9.40;1.00;;;;;;5057600;28;20228;-66
2023/12/30 08:52:07;;;;;;;4.00;1.30;;;9.20;1.00;;;;;;5072420;28;20324;-69
2023/12/30 08:54:38;;;;;;;4.30;1.50;;;9.00;1.00;;;;;;5078245;27;20682;-67
2023/12/30 08:57:08;;;;;;;2.28;1.60;;;9.10;1.00;;;;;;5074259;28;20287;-69
2023/12/30 08:59:38;;;;;;;2.83;1.70;;;9.00;1.00;;;;;;5060672;28;20220;-69
2023/12/30 09:02:07;;;;;;;2.53;1.63;;;9.00;1.00;;;;;;5064443;28;20235;-68
2023/12/30 09:04:35;;;;;;;4.32;1.60;;;8.90;1.00;;;;;;5078388;28;20299;-68
2023/12/30 09:07:04;;;;;;;2.80;1.48;;;8.90;1.00;;;;;;5059088;28;20231;-68
2023/12/30 09:09:33;;;;;;;3.60;1.85;;;8.80;1.00;;;;;;5049609;28;20309;-70
2023/12/30 09:12:01;;;;;;;4.38;1.75;;;8.70;1.00;;;;;;5056489;28;20651;-69
2023/12/30 09:14:31;;;;;;;2.88;1.77;;;8.70;1.00;;;;;;5058998;28;20236;-69
2023/12/30 09:17:00;;;;;;;6.10;2.30;;;8.70;1.00;;;;;;5071858;28;20212;-69
2023/12/30 09:19:29;;;;;;;5.03;1.75;;;8.70;1.00;;;;;;5079805;28;20215;-68
2023/12/30 09:21:57;;;;;;;6.35;2.15;;;8.60;1.00;;;;;;5055088;28;20228;-68
2023/12/30 09:24:26;;;;;;;3.05;1.73;;;8.50;1.00;;;;;;5060981;28;20216;-69
2023/12/30 09:26:55;;;;;;;3.42;1.80;;;8.40;1.00;;;;;;5056640;28;20224;-68
2023/12/30 09:29:23;;;;;;;3.10;1.48;;;8.50;1.00;;;;;;5053896;28;20227;-69
2023/12/30 09:31:53;;;;;;;3.35;1.67;;;8.50;1.00;;;;;;5058713;28;20224;-68
2023/12/30 09:34:22;;;;;;;3.88;1.40;;;8.50;1.00;;;;;;5061573;28;20307;-69
2023/12/30 09:37:05;;;;;;;1.50;0.93;;;8.50;1.00;;;;;;5061694;28;20228;-68
2023/12/30 09:39:34;;;;;;;2.42;0.90;;;8.20;1.00;;;;;;5069857;28;20215;-68
2023/12/30 09:42:03;;;;;;;1.00;0.90;;;8.10;1.00;;;;;;5068489;28;20256;-68
2023/12/30 09:44:32;;;;;;;1.33;1.10;;;8.20;1.00;;;;;;5064407;28;20226;-68
2023/12/30 09:47:07;;;;;;;2.17;1.10;;;8.20;1.00;;;;;;5094260;28;20216;-69
2023/12/30 09:49:37;;;;;;;2.47;1.20;;;8.20;1.00;;;;;;5078854;28;20311;-69
2023/12/30 09:52:06;;;;;;;2.35;0.98;;;8.20;1.00;;;;;;5074920;28;20318;-69
2023/12/30 09:54:36;;;;;;;1.65;1.40;;;8.30;1.00;;;;;;5044986;28;20228;-68
2023/12/30 09:57:17;;;;;;;2.10;1.33;;;8.30;1.00;;;;;;5058229;28;20231;-68
2023/12/30 09:59:48;;;;;;;2.40;1.50;;;8.40;1.00;;;;;;5064199;28;20678;-69
2023/12/30 10:02:17;;;;;;;2.65;1.58;;;8.40;1.00;;;;;;5061870;28;20276;-67
2023/12/30 10:04:49;;;;;;;2.58;1.48;;;8.50;1.00;;;;;;5061178;28;20217;-68
2023/12/30 10:07:18;;;;;;;2.88;1.50;;;8.60;1.00;;;;;;5083642;28;20228;-69
2023/12/30 10:09:50;;;;;;;2.35;1.60;;;8.60;1.00;;;;;;5059943;28;20224;-68
2023/12/30 10:12:19;;;;;;;3.75;1.70;;;8.70;1.00;;;;;;5066063;28;20234;-68
2023/12/30 10:14:48;;;;;;;4.22;2.03;;;8.70;1.00;;;;;;5082808;28;20293;-69
2023/12/30 10:17:20;;;;;;;5.60;2.22;;;8.80;1.00;;;;;;5084857;28;20224;-68
2023/12/30 10:19:49;;;;;;;3.40;2.20;;;8.80;1.00;;;;;;5077751;28;20399;-69
2023/12/30 10:22:18;;;;;;;2.60;1.83;;;8.80;1.00;;;;;;5075187;28;20228;-68
2023/12/30 10:24:47;;;;;;;4.35;3.00;;;8.70;1.00;;;;;;5080906;28;20687;-68
2023/12/30 10:27:16;;;;;;;3.30;2.40;;;8.70;1.00;;;;;;5070380;28;20252;-69
2023/12/30 10:29:44;;;;;;;4.40;2.17;;;8.70;1.00;;;;;;5049311;28;20271;-69
2023/12/30 10:32:25;;;;;;;3.10;1.90;;;8.90;1.00;;;;;;5063164;28;20702;-69
2023/12/30 10:34:54;;;;;;;3.58;2.20;;;9.10;1.00;;;;;;5060338;28;20295;-69
2023/12/30 10:37:24;;;;;;;4.88;2.03;;;9.00;1.00;;;;;;5059656;28;20719;-68
2023/12/30 10:39:55;;;;;;;4.32;2.05;;;8.90;1.00;;;;;;5061440;28;20227;-69
2023/12/30 10:42:24;;;;;;;3.05;1.95;;;8.90;1.00;;;;;;5069273;28;20290;-69
2023/12/30 10:44:53;;;;;;;4.15;2.22;;;8.70;1.00;;;;;;5057341;28;20251;-68
2023/12/30 10:47:23;;;;;;;2.97;1.80;;;8.90;1.00;;;;;;5069966;28;20305;-68
2023/12/30 10:49:56;;;;;;;2.38;1.60;;;8.90;1.00;;;;;;5072111;28;20293;-70
2023/12/30 10:52:26;;;;;;;3.45;2.00;;;9.00;1.00;;;;;;5057128;28;20208;-68
2023/12/30 10:55:04;;;;;;;2.13;1.60;;;9.00;1.00;;;;;;5058352;28;20885;-67
2023/12/30 10:57:37;;;;;;;2.42;1.50;;;9.00;1.00;;;;;;5060937;28;20331;-67
2023/12/30 11:00:09;;;;;;;2.30;1.60;;;9.00;1.00;;;;;;5057807;28;20369;-68
2023/12/30 11:02:38;;;;;;;2.75;1.42;;;9.00;1.00;;;;;;5054442;28;20303;-67
2023/12/30 11:05:12;;;;;;;2.22;1.40;;;9.10;1.00;;;;;;5063155;28;20305;-67
2023/12/30 11:07:41;;;;;;;2.15;1.63;;;9.10;1.00;;;;;;5058883;28;20239;-69
2023/12/30 11:10:18;;;;;;;2.28;1.60;;;9.00;1.00;;;;;;5059207;28;20232;-69
2023/12/30 11:12:47;;;;;;;2.35;1.70;;;9.10;1.00;;;;;;5054941;28;20312;-68
2023/12/30 11:15:26;;;;;;;2.20;1.30;;;9.00;1.00;;;;;;5057907;28;20224;-69
2023/12/30 11:17:56;;;;;;;3.30;1.83;;;8.90;1.00;;;;;;5073260;28;20672;-68
2023/12/30 11:20:32;;;;;;;2.60;1.65;;;8.90;1.00;;;;;;5056187;28;20325;-70
2023/12/30 11:23:03;;;;;;;3.28;1.85;;;8.80;1.00;;;;;;5062408;28;20637;-68
2023/12/30 11:25:38;;;;;;;2.72;1.90;;;8.80;1.00;;;;;;5054997;28;20220;-69
2023/12/30 11:28:14;;;;;;;3.28;1.88;;;8.90;1.00;;;;;;5059128;28;20741;-68
2023/12/30 11:30:45;;;;;;;3.17;1.88;;;9.00;1.00;;;;;;5075193;28;20232;-69
2023/12/30 11:33:14;;;;;;;2.17;1.80;;;9.00;1.00;;;;;;5058989;28;20318;-69
2023/12/30 11:35:45;;;;;;;5.18;2.63;;;9.00;1.00;;;;;;5054824;28;20244;-70
2023/12/30 11:38:14;;;;;;;2.97;1.95;;;9.10;1.00;;;;;;5058659;28;20281;-68
2023/12/30 11:40:50;;;;;;;5.55;1.88;;;9.00;1.00;;;;;;5069490;27;20310;-69
2023/12/30 11:43:20;;;;;;;2.92;1.80;;;9.00;1.00;;;;;;5082423;28;20223;-69
2023/12/30 11:45:49;;;;;;;5.65;2.30;;;9.00;1.00;;;;;;5074078;28;20228;-69
2023/12/30 11:48:17;;;;;;;6.50;2.10;;;8.70;1.00;;;;;;5081046;28;20231;-69
2023/12/30 11:50:53;;;;;;;3.92;2.13;;;8.50;1.00;;;;;;5071341;28;20253;-70
2023/12/30 11:53:22;;;;;;;1.88;1.27;;;8.10;1.00;;;;;;5075560;28;21044;-70
2023/12/30 11:55:51;;;;;;;3.17;1.70;;;7.70;1.00;;;;;;5076512;28;20326;-69
2023/12/30 11:58:19;;;;;;;3.08;1.30;;;7.60;1.00;;;;;;5074532;28;20219;-69
2023/12/30 12:00:48;;;;;;;1.70;1.17;;;7.70;1.00;;;;;;5070206;28;20228;-70
2023/12/30 12:03:17;;;;;;;2.05;0.93;;;7.70;1.00;;;;;;5073116;28;20227;-70
2023/12/30 12:05:47;;;;;;;1.80;0.93;;;7.70;1.00;;;;;;5079304;28;20220;-69
2023/12/30 12:08:16;;;;;;;1.42;0.80;;;7.60;1.00;;;;;;5071088;28;20224;-68
2023/12/30 12:10:45;;;;;;;2.30;0.77;;;7.60;1.00;;;;;;5066299;28;20228;-67
2023/12/30 12:13:20;;;;;;;1.98;0.80;;;7.50;1.00;;;;;;5059401;28;20248;-68
2023/12/30 12:15:49;;;;;;;3.67;0.80;;;7.40;1.00;;;;;;5068281;28;20232;-69
2023/12/30 12:18:18;;;;;;;2.63;1.02;;;7.40;1.00;;;;;;5066250;28;20216;-68
2023/12/30 12:20:48;;;;;;;2.13;0.93;;;7.30;1.00;;;;;;5062638;28;20698;-69
2023/12/30 12:23:17;;;;;;;3.85;1.00;;;7.30;1.00;;;;;;5072501;28;20230;-67
2023/12/30 12:25:46;;;;;;;4.20;1.97;;;7.20;1.00;;;;;;5063277;28;20231;-68
2023/12/30 12:28:17;;;;;;;2.78;1.23;;;7.30;1.00;;;;;;5058766;28;20335;-68
2023/12/30 12:30:46;;;;;;;2.40;1.50;;;7.30;1.00;;;;;;5068550;28;20239;-68
2023/12/30 12:33:15;;;;;;;4.17;1.40;;;7.30;1.00;;;;;;5062078;28;20223;-67
2023/12/30 12:35:44;;;;;;;6.55;1.60;;;7.20;1.00;;;;;;5061041;28;20269;-69
2023/12/30 12:38:14;;;;;;;7.15;1.70;;;7.30;1.00;;;;;;5064315;28;21047;-69
2023/12/30 12:40:45;;;;;;;3.95;1.85;;;7.50;1.00;;;;;;5062726;28;20287;-68
2023/12/30 12:43:13;;;;;;;3.83;1.70;;;7.50;1.00;;;;;;5060271;28;20260;-68
2023/12/30 12:45:42;;;;;;;5.47;1.92;;;7.60;1.00;;;;;;5055328;28;20303;-67
2023/12/30 12:48:11;;;;;;;3.20;1.92;;;7.60;1.00;;;;;;5055931;28;20722;-71
2023/12/30 12:50:40;;;;;;;6.13;1.95;;;7.60;1.00;;;;;;5057287;28;20229;-70
2023/12/30 12:53:08;;;;;;;4.55;2.00;;;7.60;1.00;;;;;;5069895;28;20216;-68
2023/12/30 12:55:39;;;;;;;2.97;1.73;;;7.70;1.00;;;;;;5053273;28;20311;-68
2023/12/30 12:58:08;;;;;;;3.90;1.83;;;7.50;1.00;;;;;;5047814;28;20220;-68
2023/12/30 13:00:37;;;;;;;4.15;2.17;;;7.50;1.00;;;;;;5064305;28;20227;-68
2023/12/30 13:03:06;;;;;;;4.05;1.95;;;7.60;1.00;;;;;;5073784;28;20726;-68
2023/12/30 13:05:35;;;;;;;3.63;1.98;;;7.60;1.00;;;;;;5079524;28;20285;-69
2023/12/30 13:08:05;;;;;;;3.88;2.05;;;7.60;1.00;;;;;;5082362;28;20219;-70
2023/12/30 13:10:42;;;;;;;5.03;2.10;;;7.70;1.00;;;;;;5074302;28;20228;-70
2023/12/30 13:13:12;;;;;;;4.68;2.58;;;7.70;1.00;;;;;;5071280;27;20225;-71
2023/12/30 13:15:41;;;;;;;5.28;2.28;;;7.70;1.00;;;;;;5071570;28;20564;-69